Time;durP1;ratioP1;P1;durP2;ratioP2;P2;SDS_P1;SDS_P2;PMS_P1;PMS_P2;Temp;Humidity;BMP_temperature;BMP_pressure;BME280_temperature;BME280_humidity;BME280_pressure;Samples;Min_cycle;Max_cycle;Signal;HPM_P1;HPM_P2
2023/08/25 00:01:23;;;;;;;5.43;1.60;;;;;;;;;;4918220;29;20538;-79
2023/08/25 00:03:54;;;;;;;4.38;1.65;;;;;;;;;;4936410;29;20059;-79
2023/08/25 00:06:27;;;;;;;5.53;1.63;;;;;;;;;;4918916;29;20056;-80
2023/08/25 00:08:59;;;;;;;3.28;1.70;;;;;;;;;;4918129;29;20062;-79
2023/08/25 00:11:30;;;;;;;5.00;1.92;;;;;;;;;;4935722;29;20392;-79
2023/08/25 00:14:05;;;;;;;5.93;2.35;;;;;;;;;;4924727;29;20407;-79
2023/08/25 00:16:38;;;;;;;6.18;2.30;;;;;;;;;;4917322;29;20060;-78
2023/08/25 00:19:10;;;;;;;5.70;1.92;;;;;;;;;;4916624;29;20056;-79
2023/08/25 00:21:41;;;;;;;4.38;1.80;;;;;;;;;;4899774;29;20056;-78
2023/08/25 00:24:13;;;;;;;5.35;2.28;;;;;;;;;;4899632;29;20047;-80
2023/08/25 00:26:47;;;;;;;5.95;2.47;;;;;;;;;;4899898;29;20056;-76
2023/08/25 00:29:18;;;;;;;6.80;2.65;;;;;;;;;;4916547;29;20051;-80
2023/08/25 00:31:51;;;;;;;5.47;1.70;;;;;;;;;;4898953;29;20099;-80
2023/08/25 00:34:23;;;;;;;8.20;2.97;;;;;;;;;;4916314;29;20052;-79
2023/08/25 00:36:55;;;;;;;5.90;2.13;;;;;;;;;;4899784;29;20063;-80
2023/08/25 00:39:26;;;;;;;6.43;2.67;;;;;;;;;;4915701;29;20063;-79
2023/08/25 00:42:19;;;;;;;6.88;2.60;;;;;;;;;;4916137;29;20039;-81
2023/08/25 00:44:51;;;;;;;6.55;2.78;;;;;;;;;;4915985;29;20063;-81
2023/08/25 00:47:24;;;;;;;7.40;3.40;;;;;;;;;;4899166;29;20056;-81
2023/08/25 00:49:56;;;;;;;7.40;3.28;;;;;;;;;;4915463;29;20072;-82
2023/08/25 00:52:26;;;;;;;7.88;2.78;;;;;;;;;;4914726;29;20052;-78
2023/08/25 00:54:58;;;;;;;7.20;2.67;;;;;;;;;;4899142;29;20052;-82
2023/08/25 00:57:31;;;;;;;5.28;2.30;;;;;;;;;;4914709;29;20063;-79
2023/08/25 01:00:06;;;;;;;7.00;3.28;;;;;;;;;;4916360;29;20514;-83
2023/08/25 01:02:38;;;;;;;8.18;3.25;;;;;;;;;;4898695;29;20057;-81
2023/08/25 01:05:10;;;;;;;10.15;3.70;;;;;;;;;;4898459;29;20476;-82
2023/08/25 01:07:43;;;;;;;8.73;3.72;;;;;;;;;;4914918;29;20058;-80
2023/08/25 01:10:15;;;;;;;8.27;3.30;;;;;;;;;;4898600;29;20056;-80
2023/08/25 01:13:04;;;;;;;6.63;3.22;;;;;;;;;;4916124;29;20419;-80
2023/08/25 01:15:41;;;;;;;6.95;2.97;;;;;;;;;;4913984;29;20507;-80
2023/08/25 01:18:18;;;;;;;6.72;2.60;;;;;;;;;;4913486;29;20056;-79
2023/08/25 01:20:50;;;;;;;6.55;3.63;;;;;;;;;;4915162;29;20052;-79
2023/08/25 01:23:28;;;;;;;9.02;4.00;;;;;;;;;;4899709;29;20430;-79
2023/08/25 01:26:02;;;;;;;7.65;3.42;;;;;;;;;;4899035;29;20048;-79
2023/08/25 01:28:35;;;;;;;10.77;3.60;;;;;;;;;;4901625;29;20523;-78
2023/08/25 01:31:05;;;;;;;10.70;4.00;;;;;;;;;;4926336;29;20467;-81
2023/08/25 01:33:39;;;;;;;9.85;4.07;;;;;;;;;;4941567;29;20067;-76
2023/08/25 01:36:33;;;;;;;10.60;4.15;;;;;;;;;;4939714;29;20058;-76
2023/08/25 01:39:14;;;;;;;8.82;4.35;;;;;;;;;;4957045;29;20046;-76
2023/08/25 01:41:48;;;;;;;12.88;4.00;;;;;;;;;;4952433;29;20509;-79
2023/08/25 01:44:25;;;;;;;9.30;4.18;;;;;;;;;;4918776;29;20070;-81
2023/08/25 01:47:06;;;;;;;9.50;4.18;;;;;;;;;;4934832;29;20388;-80
2023/08/25 01:49:40;;;;;;;10.98;3.55;;;;;;;;;;4934547;29;20051;-80
2023/08/25 01:52:12;;;;;;;7.75;3.42;;;;;;;;;;4934592;29;20050;-79
2023/08/25 01:54:43;;;;;;;8.27;3.65;;;;;;;;;;4918377;29;20067;-80
2023/08/25 01:57:16;;;;;;;9.95;3.78;;;;;;;;;;4934393;29;20420;-80
2023/08/25 01:59:51;;;;;;;10.52;4.13;;;;;;;;;;4917058;29;20067;-80
2023/08/25 02:02:22;;;;;;;6.85;3.22;;;;;;;;;;4932434;29;20470;-79
2023/08/25 02:04:53;;;;;;;10.48;3.78;;;;;;;;;;4934548;29;20502;-79
2023/08/25 02:07:26;;;;;;;9.95;4.50;;;;;;;;;;4917304;29;20055;-80
2023/08/25 02:10:00;;;;;;;7.78;3.88;;;;;;;;;;4916859;29;20161;-80
2023/08/25 02:12:33;;;;;;;8.98;4.30;;;;;;;;;;4917127;29;20052;-79
2023/08/25 02:15:04;;;;;;;;;;;;;;;;;;4935953;29;20467;-79
2023/08/25 02:17:42;;;;;;;12.70;4.00;;;;;;;;;;4920371;29;19930;-79
2023/08/25 02:20:15;;;;;;;7.90;3.83;;;;;;;;;;4936130;29;20506;-80
2023/08/25 02:22:45;;;;;;;9.60;3.20;;;;;;;;;;4921261;29;20062;-78
2023/08/25 02:25:15;;;;;;;8.70;3.50;;;;;;;;;;4921350;29;20100;-79
2023/08/25 02:27:47;;;;;;;9.18;3.88;;;;;;;;;;4920835;29;20392;-78
2023/08/25 02:30:24;;;;;;;7.82;3.13;;;;;;;;;;4937995;29;20039;-79
2023/08/25 02:32:57;;;;;;;7.90;3.78;;;;;;;;;;4935865;29;20058;-79
2023/08/25 02:35:29;;;;;;;7.38;3.63;;;;;;;;;;4920123;29;20048;-80
2023/08/25 02:38:06;;;;;;;8.07;3.33;;;;;;;;;;4920808;29;20047;-79
2023/08/25 02:40:40;;;;;;;8.00;3.70;;;;;;;;;;4938206;29;20403;-80
2023/08/25 02:43:12;;;;;;;10.52;3.55;;;;;;;;;;4932497;29;20063;-79
2023/08/25 02:45:42;;;;;;;11.55;3.70;;;;;;;;;;4937513;29;20044;-80
2023/08/25 02:48:13;;;;;;;11.45;4.45;;;;;;;;;;4937353;29;20043;-79
2023/08/25 02:50:49;;;;;;;8.77;3.92;;;;;;;;;;4919057;29;20059;-79
2023/08/25 02:53:23;;;;;;;7.47;3.63;;;;;;;;;;4921926;29;20071;-79
2023/08/25 02:55:56;;;;;;;8.82;4.22;;;;;;;;;;4935384;29;20086;-80
2023/08/25 02:58:28;;;;;;;7.05;3.45;;;;;;;;;;4936477;29;20059;-81
2023/08/25 03:01:03;;;;;;;8.45;3.53;;;;;;;;;;4938356;29;20522;-79
2023/08/25 03:03:35;;;;;;;8.50;2.95;;;;;;;;;;4936474;29;20067;-80
2023/08/25 03:06:07;;;;;;;7.50;3.30;;;;;;;;;;4937331;29;20082;-79
2023/08/25 03:08:41;;;;;;;7.88;3.30;;;;;;;;;;4920446;29;20058;-79
2023/08/25 03:11:14;;;;;;;6.88;3.20;;;;;;;;;;4936634;29;20048;-80
2023/08/25 03:13:48;;;;;;;7.57;3.30;;;;;;;;;;4920441;29;20526;-79
2023/08/25 03:16:19;;;;;;;6.82;2.80;;;;;;;;;;4920819;29;20047;-78
2023/08/25 03:18:51;;;;;;;7.78;3.88;;;;;;;;;;4936620;29;20056;-79
2023/08/25 03:21:30;;;;;;;10.32;3.75;;;;;;;;;;4935669;29;20051;-79
2023/08/25 03:24:01;;;;;;;6.57;3.10;;;;;;;;;;4937570;29;20063;-79
2023/08/25 03:26:33;;;;;;;8.70;3.60;;;;;;;;;;4934472;29;20052;-81
2023/08/25 03:29:05;;;;;;;9.88;3.90;;;;;;;;;;4935994;29;20052;-78
2023/08/25 03:31:38;;;;;;;7.90;3.33;;;;;;;;;;4936293;29;20063;-81
2023/08/25 03:34:09;;;;;;;11.38;3.80;;;;;;;;;;4920425;29;20063;-78
2023/08/25 03:36:40;;;;;;;7.13;3.10;;;;;;;;;;4938246;29;20055;-77
2023/08/25 03:39:13;;;;;;;11.68;3.65;;;;;;;;;;4921337;29;20044;-80
2023/08/25 03:41:46;;;;;;;6.60;2.95;;;;;;;;;;4936000;29;20062;-79
2023/08/25 03:44:17;;;;;;;9.48;3.53;;;;;;;;;;4938260;29;20055;-78
2023/08/25 03:46:48;;;;;;;8.20;4.00;;;;;;;;;;4934932;29;20056;-79
2023/08/25 03:49:23;;;;;;;9.52;3.63;;;;;;;;;;4936168;29;20063;-78
2023/08/25 03:51:58;;;;;;;8.82;3.60;;;;;;;;;;4937252;29;20054;-79
2023/08/25 03:54:31;;;;;;;8.02;3.78;;;;;;;;;;4919752;29;20060;-79
2023/08/25 03:57:08;;;;;;;8.20;3.45;;;;;;;;;;4919618;29;20475;-80
2023/08/25 03:59:40;;;;;;;8.73;3.40;;;;;;;;;;4919383;29;20407;-78
2023/08/25 04:02:13;;;;;;;8.68;3.25;;;;;;;;;;4937565;29;20051;-78
2023/08/25 04:04:49;;;;;;;7.65;3.15;;;;;;;;;;4935502;29;20048;-80
2023/08/25 04:07:20;;;;;;;4.80;2.08;;;;;;;;;;4919775;29;20052;-79
2023/08/25 04:09:55;;;;;;;7.30;2.60;;;;;;;;;;4935540;29;20055;-78
2023/08/25 04:12:26;;;;;;;5.15;1.98;;;;;;;;;;4937400;29;20063;-80
2023/08/25 04:14:58;;;;;;;5.97;2.45;;;;;;;;;;4936941;29;20163;-80
2023/08/25 04:17:34;;;;;;;8.45;2.60;;;;;;;;;;4918963;29;20062;-80
2023/08/25 04:20:06;;;;;;;5.78;2.08;;;;;;;;;;4937533;29;20059;-79
2023/08/25 04:22:38;;;;;;;4.95;2.20;;;;;;;;;;4920079;29;20059;-80
2023/08/25 04:25:12;;;;;;;5.60;2.05;;;;;;;;;;4936957;29;20495;-79
2023/08/25 04:27:42;;;;;;;5.85;1.55;;;;;;;;;;4934047;29;20059;-78
2023/08/25 04:30:14;;;;;;;2.60;1.10;;;;;;;;;;4934962;29;20349;-80
2023/08/25 04:32:47;;;;;;;2.63;1.20;;;;;;;;;;4920856;29;20052;-80
2023/08/25 04:35:19;;;;;;;3.13;0.98;;;;;;;;;;4934972;29;20063;-79
2023/08/25 04:37:50;;;;;;;4.90;1.08;;;;;;;;;;4918691;29;20426;-79
2023/08/25 04:40:23;;;;;;;3.45;1.20;;;;;;;;;;4935012;29;20179;-79
2023/08/25 04:42:59;;;;;;;;;;;;;;;;;;4934780;29;20043;-78
2023/08/25 04:45:30;;;;;;;3.88;1.00;;;;;;;;;;4936625;29;19922;-80
2023/08/25 04:48:02;;;;;;;2.92;1.23;;;;;;;;;;4934608;29;20063;-79
2023/08/25 04:50:35;;;;;;;;;;;;;;;;;;4919502;29;20074;-79
2023/08/25 04:53:07;;;;;;;4.35;1.17;;;;;;;;;;4936232;29;19922;-78
2023/08/25 04:55:42;;;;;;;2.65;0.90;;;;;;;;;;4918656;29;20047;-81
2023/08/25 04:58:13;;;;;;;1.90;0.73;;;;;;;;;;4934314;29;20047;-79
2023/08/25 05:00:50;;;;;;;1.95;0.60;;;;;;;;;;4918761;29;20051;-79
2023/08/25 05:03:23;;;;;;;4.30;0.90;;;;;;;;;;4918137;29;20059;-79
2023/08/25 05:05:55;;;;;;;2.95;0.80;;;;;;;;;;4918796;29;20063;-79
2023/08/25 05:08:29;;;;;;;5.15;0.80;;;;;;;;;;4918131;29;20364;-79
2023/08/25 05:11:03;;;;;;;5.43;1.27;;;;;;;;;;4933968;29;20062;-79
2023/08/25 05:13:35;;;;;;;5.63;0.90;;;;;;;;;;4930561;29;20059;-79
2023/08/25 05:16:08;;;;;;;1.77;0.70;;;;;;;;;;4915148;29;20064;-80
2023/08/25 05:18:55;;;;;;;3.92;0.85;;;;;;;;;;4915507;29;20472;-80
2023/08/25 05:21:27;;;;;;;3.95;1.05;;;;;;;;;;4930793;29;20059;-78
2023/08/25 05:24:23;;;;;;;2.35;0.82;;;;;;;;;;4930677;29;20495;-80
2023/08/25 05:26:55;;;;;;;2.72;0.98;;;;;;;;;;4931273;29;20400;-80
2023/08/25 05:29:29;;;;;;;5.00;1.00;;;;;;;;;;4915472;29;20060;-79
2023/08/25 05:32:04;;;;;;;3.30;0.70;;;;;;;;;;4915405;29;20056;-79
2023/08/25 05:35:08;;;;;;;2.20;0.95;;;;;;;;;;4909322;29;20052;-80
2023/08/25 05:37:40;;;;;;;3.28;0.70;;;;;;;;;;4914984;29;20530;-79
2023/08/25 05:40:14;;;;;;;2.47;1.27;;;;;;;;;;4915206;29;20056;-80
2023/08/25 05:42:46;;;;;;;2.80;0.93;;;;;;;;;;4916703;29;20041;-79
2023/08/25 05:45:23;;;;;;;8.65;1.30;;;;;;;;;;4916946;29;20051;-80
2023/08/25 05:47:55;;;;;;;3.35;0.98;;;;;;;;;;4914802;29;20052;-79
2023/08/25 05:50:27;;;;;;;1.85;0.60;;;;;;;;;;4932951;28;20052;-78
2023/08/25 05:53:03;;;;;;;3.83;0.90;;;;;;;;;;4918677;29;20411;-80
2023/08/25 05:55:35;;;;;;;3.70;0.60;;;;;;;;;;4920585;29;20519;-80
2023/08/25 05:58:06;;;;;;;3.72;0.90;;;;;;;;;;4920938;29;20044;-80
2023/08/25 06:00:36;;;;;;;2.67;0.90;;;;;;;;;;4920990;29;20055;-79
2023/08/25 06:03:08;;;;;;;3.25;0.68;;;;;;;;;;4934840;29;20071;-81
2023/08/25 06:05:39;;;;;;;;;;;;;;;;;;4918871;29;20052;-77
2023/08/25 06:08:11;;;;;;;2.72;0.90;;;;;;;;;;4934542;29;19923;-78
2023/08/25 06:10:43;;;;;;;2.47;0.85;;;;;;;;;;4919375;29;20492;-80
2023/08/25 06:13:14;;;;;;;2.53;0.73;;;;;;;;;;4935837;29;20060;-79
2023/08/25 06:15:48;;;;;;;2.47;0.90;;;;;;;;;;4922995;29;20059;-79
2023/08/25 06:18:19;;;;;;;3.58;0.70;;;;;;;;;;4938927;29;20051;-79
2023/08/25 06:20:52;;;;;;;4.13;1.00;;;;;;;;;;4922734;29;20062;-79
2023/08/25 06:23:24;;;;;;;2.75;1.00;;;;;;;;;;4939167;29;20059;-78
2023/08/25 06:25:59;;;;;;;3.47;0.82;;;;;;;;;;4939236;29;20063;-77
2023/08/25 06:28:29;;;;;;;;;;;;;;;;;;4921343;29;20471;-79
2023/08/25 06:30:59;;;;;;;2.95;0.82;;;;;;;;;;4939071;29;19926;-79
2023/08/25 06:33:31;;;;;;;2.15;0.80;;;;;;;;;;4939010;29;20047;-80
2023/08/25 06:36:05;;;;;;;4.47;1.00;;;;;;;;;;4939524;29;20411;-80
2023/08/25 06:38:36;;;;;;;2.10;0.77;;;;;;;;;;4939337;29;20044;-80
2023/08/25 06:41:25;;;;;;;3.58;0.70;;;;;;;;;;4942273;29;20039;-78
2023/08/25 06:43:59;;;;;;;4.43;0.82;;;;;;;;;;4927270;29;20063;-76
2023/08/25 06:46:33;;;;;;;3.53;0.80;;;;;;;;;;4962119;29;20412;-77
2023/08/25 06:49:03;;;;;;;1.63;0.73;;;;;;;;;;4961955;29;20028;-75
2023/08/25 06:51:36;;;;;;;8.27;0.60;;;;;;;;;;4956567;29;20048;-80
2023/08/25 06:54:09;;;;;;;3.40;0.77;;;;;;;;;;4938657;29;20040;-79
2023/08/25 06:59:36;;;;;;;1.90;0.70;;;;;;;;;;4938794;29;20040;-79
2023/08/25 07:02:07;;;;;;;3.03;0.70;;;;;;;;;;4935852;29;20065;-80
2023/08/25 07:04:40;;;;;;;2.28;0.60;;;;;;;;;;4937492;29;20052;-79
2023/08/25 07:07:14;;;;;;;2.55;0.80;;;;;;;;;;4937052;29;20063;-79
2023/08/25 07:09:44;;;;;;;;;;;;;;;;;;4937255;29;20510;-79
2023/08/25 07:12:14;;;;;;;4.50;0.80;;;;;;;;;;4938243;29;19930;-80
2023/08/25 07:14:45;;;;;;;3.85;0.80;;;;;;;;;;4938744;29;20067;-80
2023/08/25 07:17:16;;;;;;;2.58;0.88;;;;;;;;;;4938893;29;20388;-79
2023/08/25 07:19:48;;;;;;;1.92;0.82;;;;;;;;;;4938197;29;20056;-78
2023/08/25 07:22:20;;;;;;;1.42;0.60;;;;;;;;;;4938065;29;20510;-80
2023/08/25 07:24:53;;;;;;;4.78;0.77;;;;;;;;;;4938024;29;20047;-79
2023/08/25 07:27:26;;;;;;;5.28;0.88;;;;;;;;;;4921922;29;20403;-78
2023/08/25 07:29:58;;;;;;;1.92;0.57;;;;;;;;;;4937707;29;20040;-79
2023/08/25 07:32:30;;;;;;;2.40;0.57;;;;;;;;;;4937961;29;20475;-79
2023/08/25 07:35:00;;;;;;;4.35;0.60;;;;;;;;;;4921219;29;20047;-78
2023/08/25 07:37:30;;;;;;;2.13;1.10;;;;;;;;;;4937802;29;20117;-79
2023/08/25 07:40:07;;;;;;;1.95;0.55;;;;;;;;;;4937990;29;20059;-79
2023/08/25 07:42:38;;;;;;;2.03;0.65;;;;;;;;;;4937658;29;20047;-80
2023/08/25 07:45:09;;;;;;;3.28;0.60;;;;;;;;;;4938309;29;20048;-80
2023/08/25 07:47:41;;;;;;;3.40;0.60;;;;;;;;;;4936338;29;20062;-80
2023/08/25 07:50:13;;;;;;;2.45;1.23;;;;;;;;;;4936193;29;20114;-82
2023/08/25 07:52:43;;;;;;;3.72;0.60;;;;;;;;;;4936996;29;20055;-81
2023/08/25 07:55:14;;;;;;;3.08;0.68;;;;;;;;;;4937266;29;20051;-79
2023/08/25 07:57:47;;;;;;;2.15;0.65;;;;;;;;;;4920926;29;20052;-78
2023/08/25 08:00:19;;;;;;;6.47;0.73;;;;;;;;;;4937994;29;20046;-79
2023/08/25 08:02:50;;;;;;;3.10;0.77;;;;;;;;;;4937549;29;20050;-80
2023/08/25 08:05:21;;;;;;;2.20;0.40;;;;;;;;;;4937374;29;20077;-79
2023/08/25 08:07:55;;;;;;;;;;;;;;;;;;4935852;29;20399;-79
2023/08/25 08:10:29;;;;;;;1.42;0.60;;;;;;;;;;4937052;29;20290;-79
2023/08/25 08:13:00;;;;;;;1.02;0.50;;;;;;;;;;4925948;29;20416;-78
2023/08/25 08:15:31;;;;;;;4.50;0.70;;;;;;;;;;4916152;29;20399;-80
2023/08/25 08:18:04;;;;;;;2.78;0.60;;;;;;;;;;4916629;29;20063;-79
2023/08/25 08:20:38;;;;;;;1.52;0.45;;;;;;;;;;4916033;29;20519;-79
2023/08/25 08:23:08;;;;;;;4.95;0.32;;;;;;;;;;4932245;29;20052;-78
2023/08/25 08:25:39;;;;;;;5.75;0.70;;;;;;;;;;4917981;29;20055;-78
2023/08/25 08:28:12;;;;;;;3.08;0.60;;;;;;;;;;4918510;29;20055;-80
2023/08/25 08:30:47;;;;;;;4.70;0.65;;;;;;;;;;4918087;29;20051;-79
2023/08/25 08:33:19;;;;;;;1.63;0.50;;;;;;;;;;4917871;29;20052;-80
2023/08/25 08:35:49;;;;;;;0.90;0.30;;;;;;;;;;4917442;29;20052;-79
2023/08/25 08:38:20;;;;;;;2.22;0.65;;;;;;;;;;4916772;29;20064;-79
2023/08/25 08:41:04;;;;;;;2.33;0.50;;;;;;;;;;4917660;29;20542;-81
2023/08/25 08:43:42;;;;;;;3.67;0.73;;;;;;;;;;4931323;29;20048;-79
2023/08/25 08:46:15;;;;;;;1.92;0.77;;;;;;;;;;4917522;29;20044;-80
2023/08/25 08:48:50;;;;;;;6.45;0.60;;;;;;;;;;4918235;29;20113;-79
2023/08/25 08:51:23;;;;;;;1.38;0.60;;;;;;;;;;4932182;29;20048;-78
2023/08/25 08:53:55;;;;;;;2.72;0.50;;;;;;;;;;4917452;29;20055;-78
2023/08/25 08:56:26;;;;;;;1.50;0.50;;;;;;;;;;4915555;29;20056;-81
2023/08/25 08:58:59;;;;;;;3.83;0.43;;;;;;;;;;4917971;29;20048;-79
2023/08/25 09:01:33;;;;;;;0.98;0.38;;;;;;;;;;4911938;29;20195;-79
2023/08/25 09:04:09;;;;;;;1.38;0.40;;;;;;;;;;4898748;29;20060;-78
2023/08/25 09:06:41;;;;;;;1.10;0.30;;;;;;;;;;4912331;29;20055;-80
2023/08/25 09:09:14;;;;;;;2.60;0.50;;;;;;;;;;4912307;29;20052;-80
2023/08/25 09:11:49;;;;;;;1.05;0.35;;;;;;;;;;4902602;29;20060;-80
2023/08/25 09:14:43;;;;;;;3.63;0.40;;;;;;;;;;4899373;29;20056;-79
2023/08/25 09:17:14;;;;;;;7.13;0.50;;;;;;;;;;4900490;29;20047;-80
2023/08/25 09:19:48;;;;;;;3.00;0.50;;;;;;;;;;4899673;29;20075;-80
2023/08/25 09:22:21;;;;;;;0.85;0.35;;;;;;;;;;4899304;29;20052;-81
2023/08/25 09:24:56;;;;;;;1.10;0.40;;;;;;;;;;4917076;29;20055;-81
2023/08/25 09:27:27;;;;;;;1.80;0.40;;;;;;;;;;4917136;29;20051;-80
2023/08/25 09:30:06;;;;;;;2.85;0.40;;;;;;;;;;4899641;29;20506;-79
2023/08/25 09:32:39;;;;;;;2.80;0.47;;;;;;;;;;4899356;29;20071;-81
2023/08/25 09:35:14;;;;;;;2.33;0.45;;;;;;;;;;4917057;29;20044;-80
2023/08/25 09:37:45;;;;;;;3.15;0.30;;;;;;;;;;4900114;29;20507;-82
2023/08/25 09:40:19;;;;;;;5.00;0.55;;;;;;;;;;4900897;29;20048;-80
2023/08/25 09:43:00;;;;;;;1.85;0.75;;;;;;;;;;4916768;29;20048;-80
2023/08/25 09:45:37;;;;;;;0.43;0.20;;;;;;;;;;4899371;29;20064;-81
2023/08/25 09:48:11;;;;;;;0.60;0.30;;;;;;;;;;4916578;29;20059;-79
2023/08/25 09:50:46;;;;;;;2.42;0.30;;;;;;;;;;4916642;29;20044;-80
2023/08/25 09:53:18;;;;;;;1.15;0.70;;;;;;;;;;4916610;29;20482;-80
2023/08/25 09:56:01;;;;;;;0.43;0.25;;;;;;;;;;4899450;29;20048;-80
2023/08/25 09:58:34;;;;;;;3.97;0.43;;;;;;;;;;4916331;29;20491;-81
2023/08/25 10:01:06;;;;;;;0.68;0.30;;;;;;;;;;4915923;29;20127;-80
2023/08/25 10:03:42;;;;;;;1.50;0.30;;;;;;;;;;4927864;29;20479;-79
2023/08/25 10:06:17;;;;;;;1.85;0.47;;;;;;;;;;4926093;29;20044;-80
2023/08/25 10:08:48;;;;;;;1.70;0.52;;;;;;;;;;4920001;29;20427;-78
2023/08/25 10:11:22;;;;;;;1.55;0.40;;;;;;;;;;4931407;29;20044;-78
2023/08/25 10:13:56;;;;;;;3.30;0.68;;;;;;;;;;4922388;29;20051;-80
2023/08/25 10:16:28;;;;;;;2.42;0.40;;;;;;;;;;4924095;29;20555;-80
2023/08/25 10:19:02;;;;;;;2.28;0.65;;;;;;;;;;4925774;29;20032;-79
2023/08/25 10:21:36;;;;;;;1.77;0.50;;;;;;;;;;4915763;29;20055;-80
2023/08/25 10:24:14;;;;;;;2.25;0.70;;;;;;;;;;4898202;29;20424;-81
2023/08/25 10:26:52;;;;;;;3.10;0.40;;;;;;;;;;4921577;29;20071;-80
2023/08/25 10:29:25;;;;;;;2.28;0.43;;;;;;;;;;4917972;29;20507;-79
2023/08/25 10:32:04;;;;;;;1.92;0.50;;;;;;;;;;4915081;29;20040;-80
2023/08/25 10:34:46;;;;;;;2.38;0.70;;;;;;;;;;4914979;29;20055;-79
2023/08/25 10:37:25;;;;;;;1.67;0.75;;;;;;;;;;4918420;29;20064;-79
2023/08/25 10:40:08;;;;;;;4.72;0.50;;;;;;;;;;4917534;29;20059;-79
2023/08/25 10:42:40;;;;;;;8.55;1.30;;;;;;;;;;4921048;29;20055;-79
2023/08/25 10:45:11;;;;;;;3.85;1.02;;;;;;;;;;4921277;29;20047;-80
2023/08/25 10:47:46;;;;;;;5.80;1.00;;;;;;;;;;4936313;29;20399;-80
2023/08/25 10:50:22;;;;;;;6.50;0.88;;;;;;;;;;4905696;29;20052;-79
2023/08/25 10:52:54;;;;;;;2.78;0.88;;;;;;;;;;4916919;29;20064;-81
2023/08/25 10:55:36;;;;;;;2.70;0.88;;;;;;;;;;4927709;29;20043;-81
2023/08/25 10:58:07;;;;;;;3.20;0.90;;;;;;;;;;4935923;29;20066;-80
2023/08/25 11:00:43;;;;;;;3.53;0.85;;;;;;;;;;4935950;29;20043;-81
2023/08/25 11:03:16;;;;;;;5.75;1.15;;;;;;;;;;4937196;29;20490;-81
2023/08/25 11:05:47;;;;;;;4.03;0.60;;;;;;;;;;4936723;29;20063;-82
2023/08/25 11:08:28;;;;;;;11.50;3.42;;;;;;;;;;4915184;29;20419;-80
2023/08/25 11:11:19;;;;;;;3.90;0.82;;;;;;;;;;4909739;29;20071;-83
2023/08/25 11:13:53;;;;;;;4.13;2.28;;;;;;;;;;4935852;29;20051;-83
2023/08/25 11:16:25;;;;;;;4.50;1.00;;;;;;;;;;4926978;29;20067;-83
2023/08/25 11:18:56;;;;;;;5.80;0.73;;;;;;;;;;4934960;29;20051;-82
2023/08/25 11:21:27;;;;;;;3.80;0.25;;;;;;;;;;4920059;29;20047;-81
2023/08/25 11:23:58;;;;;;;3.15;0.75;;;;;;;;;;4920813;29;20479;-81
2023/08/25 11:26:34;;;;;;;1.17;0.40;;;;;;;;;;4945382;29;20044;-81
2023/08/25 11:29:04;;;;;;;1.77;0.73;;;;;;;;;;4937277;29;20522;-80
2023/08/25 11:31:35;;;;;;;1.95;0.75;;;;;;;;;;4954143;29;20055;-80
2023/08/25 11:34:07;;;;;;;3.38;1.27;;;;;;;;;;4961268;29;20031;-80
2023/08/25 11:36:40;;;;;;;3.60;0.98;;;;;;;;;;4943124;29;20044;-79
2023/08/25 11:39:18;;;;;;;1.25;0.40;;;;;;;;;;4922546;29;20043;-82
2023/08/25 11:41:53;;;;;;;12.77;1.05;;;;;;;;;;4921817;29;20588;-80
2023/08/25 11:44:25;;;;;;;7.28;1.50;;;;;;;;;;4951432;29;20054;-81
2023/08/25 11:46:58;;;;;;;3.85;0.95;;;;;;;;;;4919213;29;20392;-81
2023/08/25 11:49:33;;;;;;;3.50;1.23;;;;;;;;;;4919936;29;20047;-80
2023/08/25 11:52:07;;;;;;;2.05;0.93;;;;;;;;;;4919795;29;20054;-82
2023/08/25 11:54:48;;;;;;;2.72;0.47;;;;;;;;;;4936656;29;20040;-82
2023/08/25 11:57:20;;;;;;;3.70;0.77;;;;;;;;;;4936881;29;20048;-83
2023/08/25 11:59:57;;;;;;;3.85;0.60;;;;;;;;;;4919057;29;20054;-82
2023/08/25 12:02:31;;;;;;;2.88;0.50;;;;;;;;;;4925222;29;20052;-83
2023/08/25 12:05:04;;;;;;;3.88;1.20;;;;;;;;;;4935803;29;20055;-81
2023/08/25 12:07:37;;;;;;;3.17;0.65;;;;;;;;;;4929536;29;20047;-81
2023/08/25 12:10:10;;;;;;;2.60;0.50;;;;;;;;;;4935873;29;20055;-81
2023/08/25 12:12:42;;;;;;;1.83;0.77;;;;;;;;;;4933845;29;20059;-84
2023/08/25 12:15:12;;;;;;;1.33;0.60;;;;;;;;;;4918744;29;20047;-82
2023/08/25 12:17:49;;;;;;;2.50;0.80;;;;;;;;;;4903273;29;20059;-80
2023/08/25 12:20:23;;;;;;;1.20;0.57;;;;;;;;;;4917589;29;20508;-81
2023/08/25 12:23:04;;;;;;;2.28;0.55;;;;;;;;;;4902175;29;20063;-82
2023/08/25 12:25:38;;;;;;;0.75;0.32;;;;;;;;;;4934875;29;20515;-83
2023/08/25 12:28:12;;;;;;;1.27;0.50;;;;;;;;;;4919200;29;20048;-84
2023/08/25 12:30:48;;;;;;;3.28;0.80;;;;;;;;;;4917629;29;20048;-85
2023/08/25 12:33:20;;;;;;;1.27;0.52;;;;;;;;;;4917525;29;20051;-82
2023/08/25 12:35:50;;;;;;;1.20;0.60;;;;;;;;;;4918363;29;20043;-83
2023/08/25 12:38:25;;;;;;;1.60;0.57;;;;;;;;;;4928048;29;20047;-84
2023/08/25 12:40:58;;;;;;;1.75;0.80;;;;;;;;;;4899891;29;20392;-83
2023/08/25 12:43:33;;;;;;;2.00;0.57;;;;;;;;;;4916431;29;20048;-82
2023/08/25 12:46:04;;;;;;;1.98;0.60;;;;;;;;;;4915377;29;20060;-84
2023/08/25 12:48:36;;;;;;;1.83;0.65;;;;;;;;;;4899193;29;20056;-79
2023/08/25 12:51:08;;;;;;;1.90;0.47;;;;;;;;;;4916472;29;20048;-81
2023/08/25 12:53:40;;;;;;;12.23;3.45;;;;;;;;;;4920601;29;20491;-81
2023/08/25 12:56:10;;;;;;;31.42;9.32;;;;;;;;;;4932518;29;20059;-84
2023/08/25 12:58:44;;;;;;;2.03;0.90;;;;;;;;;;4915733;29;20069;-84
2023/08/25 13:01:15;;;;;;;22.38;8.63;;;;;;;;;;4918623;29;20058;-83
2023/08/25 13:03:46;;;;;;;1.92;1.00;;;;;;;;;;4915403;29;20533;-82
2023/08/25 13:06:16;;;;;;;8.27;3.72;;;;;;;;;;4920232;29;20051;-82
2023/08/25 13:09:09;;;;;;;7.00;3.58;;;;;;;;;;4915107;29;20055;-86
2023/08/25 13:12:29;;;;;;;13.73;8.45;;;;;;;;;;4918528;29;20060;-83
2023/08/25 13:15:11;;;;;;;2.20;0.85;;;;;;;;;;4919472;29;20066;-83
2023/08/25 13:22:25;;;;;;;1.90;0.52;;;;;;;;;;4933234;29;20055;-83
2023/08/25 13:25:20;;;;;;;1.50;0.40;;;;;;;;;;4906208;29;20447;-83
2023/08/25 13:28:28;;;;;;;2.92;0.77;;;;;;;;;;4836790;29;20053;-82
2023/08/25 13:31:18;;;;;;;2.70;0.88;;;;;;;;;;4844573;29;20050;-84
2023/08/25 13:38:56;;;;;;;5.47;0.95;;;;;;;;;;4808441;29;20478;-85
2023/08/25 13:41:36;;;;;;;3.22;1.58;;;;;;;;;;4798970;29;20055;-86
2023/08/25 13:57:27;;;;;;;8.27;2.58;;;;;;;;;;5169073;23;20022;-83
2023/08/25 13:59:59;;;;;;;5.30;1.45;;;;;;;;;;4937267;29;20047;-84
2023/08/25 14:22:56;;;;;;;4.55;1.50;;;;;;;;;;5849001;23;20073;-82
2023/08/25 14:41:54;;;;;;;4.85;0.80;;;;;;;;;;4962823;28;20039;-82
2023/08/25 14:44:30;;;;;;;2.03;0.70;;;;;;;;;;4920423;29;20055;-81
2023/08/25 14:47:54;;;;;;;2.22;0.60;;;;;;;;;;4921842;29;20058;-81
2023/08/25 14:54:16;;;;;;;2.90;0.70;;;;;;;;;;4958433;29;20044;-81
2023/08/25 14:56:49;;;;;;;2.22;0.98;;;;;;;;;;4939651;29;20250;-82
2023/08/25 14:59:19;;;;;;;2.08;0.93;;;;;;;;;;4957946;29;20043;-79
2023/08/25 15:01:53;;;;;;;5.60;0.82;;;;;;;;;;4959420;29;20497;-85
2023/08/25 15:04:23;;;;;;;7.32;1.88;;;;;;;;;;4959655;29;20051;-80
2023/08/25 15:06:58;;;;;;;3.22;1.20;;;;;;;;;;4945752;29;20071;-81
2023/08/25 15:09:30;;;;;;;4.28;0.80;;;;;;;;;;4939851;29;20036;-82
2023/08/25 15:12:00;;;;;;;3.97;0.90;;;;;;;;;;4939979;29;20055;-80
2023/08/25 15:14:30;;;;;;;2.72;0.90;;;;;;;;;;4940662;29;20475;-81
2023/08/25 15:17:01;;;;;;;3.42;0.70;;;;;;;;;;4938380;29;20058;-80
2023/08/25 15:19:34;;;;;;;2.83;1.13;;;;;;;;;;4930812;29;20525;-81
2023/08/25 15:22:05;;;;;;;1.48;0.75;;;;;;;;;;4957362;28;20513;-81
2023/08/25 15:24:35;;;;;;;3.13;0.93;;;;;;;;;;4954311;29;20077;-80
2023/08/25 15:27:06;;;;;;;3.42;1.05;;;;;;;;;;4935762;29;20067;-80
2023/08/25 15:29:38;;;;;;;3.45;1.27;;;;;;;;;;4928300;29;20063;-85
2023/08/25 15:32:23;;;;;;;3.42;0.75;;;;;;;;;;4957126;29;20051;-83
2023/08/25 15:34:54;;;;;;;3.00;0.95;;;;;;;;;;4924815;29;20075;-85
2023/08/25 15:37:24;;;;;;;6.60;2.00;;;;;;;;;;4951419;29;20039;-84
2023/08/25 15:39:57;;;;;;;;;;;;;;;;;;4921219;29;20542;-81
2023/08/25 15:42:31;;;;;;;5.88;1.30;;;;;;;;;;4920625;29;19922;-86
2023/08/25 15:45:03;;;;;;;7.18;1.42;;;;;;;;;;4919069;29;20065;-82
2023/08/25 15:47:35;;;;;;;;;;;;;;;;;;4937683;29;20510;-81
2023/08/25 15:50:08;;;;;;;3.75;1.02;;;;;;;;;;4936227;29;19923;-81
2023/08/25 15:52:43;;;;;;;3.38;1.10;;;;;;;;;;4936617;29;20059;-82
2023/08/25 15:55:16;;;;;;;2.83;1.42;;;;;;;;;;4920435;29;20047;-82
2023/08/25 15:57:48;;;;;;;3.25;1.25;;;;;;;;;;4936208;29;20071;-82
2023/08/25 16:00:19;;;;;;;9.02;2.03;;;;;;;;;;4928730;29;20052;-81
2023/08/25 16:02:56;;;;;;;5.15;2.42;;;;;;;;;;4931432;29;20435;-82
2023/08/25 16:05:27;;;;;;;6.43;1.70;;;;;;;;;;4928509;29;20419;-85
2023/08/25 16:07:59;;;;;;;3.60;1.50;;;;;;;;;;4945523;29;20486;-82
2023/08/25 16:10:51;;;;;;;7.90;1.80;;;;;;;;;;4950886;29;20162;-83
2023/08/25 16:13:23;;;;;;;5.05;1.50;;;;;;;;;;4912544;29;20044;-80
2023/08/25 16:15:57;;;;;;;4.50;1.70;;;;;;;;;;4936705;29;20071;-81
2023/08/25 16:18:34;;;;;;;7.75;1.35;;;;;;;;;;4938722;29;20395;-80
2023/08/25 16:21:08;;;;;;;3.13;1.20;;;;;;;;;;4924163;29;20059;-81
2023/08/25 16:23:44;;;;;;;2.95;1.02;;;;;;;;;;4931212;29;20051;-79
2023/08/25 16:26:21;;;;;;;4.18;1.67;;;;;;;;;;4912955;29;20047;-79
2023/08/25 16:28:52;;;;;;;3.22;1.45;;;;;;;;;;4943630;29;20040;-78
2023/08/25 16:31:23;;;;;;;3.47;1.83;;;;;;;;;;4936621;29;20065;-80
2023/08/25 16:33:55;;;;;;;8.60;2.05;;;;;;;;;;4939841;29;20058;-80